Time,TemperatureF,DewpointF,PressureIn,WindDirection,WindDirectionDegrees,WindSpeedMPH,WindSpeedGustMPH,Humidity,HourlyPrecipIn,Conditions,Clouds,dailyrainin,SoftwareType,DateUTC
2013-01-24 00:22:00,47.0,37.0,30.25,North,-999,-999.0,-999.0,67,-99.99,,,-99.99,,2013-01-24 06:22:00,
2013-01-24 00:32:00,47.0,37.0,30.25,North,-999,-999.0,-999.0,67,-99.99,,,-99.99,,2013-01-24 06:32:00,
2013-01-24 00:42:00,47.0,37.0,30.25,North,-999,-999.0,-999.0,67,-99.99,,,-99.99,,2013-01-24 06:42:00,
2013-01-24 00:52:00,47.0,37.0,30.25,North,-999,-999.0,-999.0,67,-99.99,,,-99.99,,2013-01-24 06:52:00,
2013-01-24 01:23:00,47.0,37.0,30.25,North,-999,-999.0,-999.0,67,-99.99,,,-99.99,,2013-01-24 07:23:00,
2013-01-24 01:33:00,47.0,37.0,30.25,North,-999,-999.0,-999.0,67,-99.99,,,-99.99,,2013-01-24 07:33:00,
2013-01-24 01:42:00,47.0,37.0,30.25,North,-999,-999.0,-999.0,67,-99.99,,,-99.99,,2013-01-24 07:42:00,
2013-01-24 01:52:00,47.0,37.0,30.25,North,-999,-999.0,-999.0,67,-99.99,,,-99.99,,2013-01-24 07:52:00,
2013-01-24 02:23:00,44.0,37.0,30.24,North,-999,-999.0,-999.0,77,-99.99,,,-99.99,,2013-01-24 08:23:00,
2013-01-24 02:33:00,44.0,37.0,30.24,North,-999,-999.0,-999.0,77,-99.99,,,-99.99,,2013-01-24 08:33:00,
2013-01-24 02:43:00,44.0,37.0,30.24,North,-999,-999.0,-999.0,77,-99.99,,,-99.99,,2013-01-24 08:43:00,
2013-01-24 02:52:00,44.0,37.0,30.24,North,-999,-999.0,-999.0,77,-99.99,,,-99.99,,2013-01-24 08:52:00,
2013-01-24 03:23:00,46.0,38.0,30.26,North,-999,-999.0,-999.0,74,-99.99,,,-99.99,,2013-01-24 09:23:00,
2013-01-24 03:33:00,46.0,38.0,30.26,North,-999,-999.0,-999.0,74,-99.99,,,-99.99,,2013-01-24 09:33:00,
2013-01-24 03:43:00,46.0,38.0,30.26,North,-999,-999.0,-999.0,74,-99.99,,,-99.99,,2013-01-24 09:43:00,
2013-01-24 03:52:00,46.0,38.0,30.26,North,-999,-999.0,-999.0,74,-99.99,,,-99.99,,2013-01-24 09:52:00,
2013-01-24 04:23:00,46.0,37.0,30.25,North,-999,-999.0,-999.0,71,-99.99,,,-99.99,,2013-01-24 10:23:00,
2013-01-24 04:33:00,46.0,37.0,30.25,North,-999,-999.0,-999.0,71,-99.99,,,-99.99,,2013-01-24 10:33:00,
2013-01-24 04:43:00,46.0,37.0,30.25,North,-999,-999.0,-999.0,71,-99.99,,,-99.99,,2013-01-24 10:43:00,
2013-01-24 04:52:00,46.0,37.0,30.25,North,-999,-999.0,-999.0,71,-99.99,,,-99.99,,2013-01-24 10:52:00,
2013-01-24 05:23:00,45.0,36.0,30.28,North,-999,-999.0,-999.0,70,-99.99,,,-99.99,,2013-01-24 11:23:00,
2013-01-24 05:33:00,45.0,36.0,30.28,North,-999,-999.0,-999.0,70,-99.99,,,-99.99,,2013-01-24 11:33:00,
2013-01-24 05:43:00,45.0,36.0,30.28,North,-999,-999.0,-999.0,70,-99.99,,,-99.99,,2013-01-24 11:43:00,
2013-01-24 05:52:00,45.0,36.0,30.28,North,-999,-999.0,-999.0,70,-99.99,,,-99.99,,2013-01-24 11:52:00,
2013-01-24 06:23:00,41.0,33.0,30.32,North,-999,-999.0,-999.0,74,-99.99,,,-99.99,,2013-01-24 12:23:00,
2013-01-24 06:33:00,41.0,33.0,30.32,North,-999,-999.0,-999.0,74,-99.99,,,-99.99,,2013-01-24 12:33:00,
2013-01-24 06:43:00,41.0,33.0,30.32,North,-999,-999.0,-999.0,74,-99.99,,,-99.99,,2013-01-24 12:43:00,
2013-01-24 06:53:00,41.0,33.0,30.32,North,-999,-999.0,-999.0,74,-99.99,,,-99.99,,2013-01-24 12:53:00,
2013-01-24 07:23:00,37.0,27.0,30.35,North,-999,-999.0,-999.0,64,-99.99,,,-99.99,,2013-01-24 13:23:00,
2013-01-24 07:33:00,37.0,27.0,30.35,North,-999,-999.0,-999.0,64,-99.99,,,-99.99,,2013-01-24 13:33:00,
2013-01-24 07:43:00,37.0,27.0,30.35,North,-999,-999.0,-999.0,64,-99.99,,,-99.99,,2013-01-24 13:43:00,
2013-01-24 07:52:00,37.0,27.0,30.35,North,-999,-999.0,-999.0,64,-99.99,,,-99.99,,2013-01-24 13:52:00,
2013-01-24 08:23:00,37.0,24.0,30.38,North,-999,-999.0,-999.0,58,-99.99,,,-99.99,,2013-01-24 14:23:00,
2013-01-24 08:33:00,37.0,24.0,30.38,North,-999,-999.0,-999.0,58,-99.99,,,-99.99,,2013-01-24 14:33:00,
2013-01-24 08:43:00,37.0,24.0,30.38,North,-999,-999.0,-999.0,58,-99.99,,,-99.99,,2013-01-24 14:43:00,
2013-01-24 08:53:00,37.0,24.0,30.38,North,-999,-999.0,-999.0,58,-99.99,,,-99.99,,2013-01-24 14:53:00,
2013-01-24 09:23:00,38.0,19.0,30.42,North,-999,-999.0,-999.0,45,-99.99,,,-99.99,,2013-01-24 15:23:00,
2013-01-24 09:33:00,38.0,19.0,30.42,North,-999,-999.0,-999.0,45,-99.99,,,-99.99,,2013-01-24 15:33:00,
2013-01-24 09:43:00,38.0,19.0,30.42,North,-999,-999.0,-999.0,45,-99.99,,,-99.99,,2013-01-24 15:43:00,
2013-01-24 09:52:00,38.0,19.0,30.42,North,-999,-999.0,-999.0,45,-99.99,,,-99.99,,2013-01-24 15:52:00,
2013-01-24 10:23:00,40.0,19.0,30.43,North,-999,-999.0,-999.0,42,-99.99,,,-99.99,,2013-01-24 16:23:00,
2013-01-24 10:33:00,40.0,19.0,30.43,North,-999,-999.0,-999.0,42,-99.99,,,-99.99,,2013-01-24 16:33:00,
2013-01-24 10:42:00,40.0,19.0,30.43,North,-999,-999.0,-999.0,42,-99.99,,,-99.99,,2013-01-24 16:42:00,
2013-01-24 11:32:00,43.0,22.0,30.44,North,-999,-999.0,-999.0,43,-99.99,,,-99.99,,2013-01-24 17:32:00,
2013-01-24 11:42:00,43.0,22.0,30.44,North,-999,-999.0,-999.0,43,-99.99,,,-99.99,,2013-01-24 17:42:00,
2013-01-24 11:52:00,43.0,22.0,30.44,North,-999,-999.0,-999.0,43,-99.99,,,-99.99,,2013-01-24 17:52:00,
2013-01-24 12:22:00,43.0,18.0,30.41,North,-999,-999.0,-999.0,36,-99.99,,,-99.99,,2013-01-24 18:22:00,
2013-01-24 12:33:00,43.0,18.0,30.41,North,-999,-999.0,-999.0,36,-99.99,,,-99.99,,2013-01-24 18:33:00,
2013-01-24 12:42:00,43.0,18.0,30.41,North,-999,-999.0,-999.0,36,-99.99,,,-99.99,,2013-01-24 18:42:00,
2013-01-24 12:52:00,43.0,18.0,30.41,North,-999,-999.0,-999.0,36,-99.99,,,-99.99,,2013-01-24 18:52:00,
2013-01-24 13:22:00,43.0,17.0,30.40,North,-999,-999.0,-999.0,34,-99.99,,,-99.99,,2013-01-24 19:22:00,
2013-01-24 13:33:00,43.0,17.0,30.40,North,-999,-999.0,-999.0,34,-99.99,,,-99.99,,2013-01-24 19:33:00,
2013-01-24 13:42:00,43.0,17.0,30.40,North,-999,-999.0,-999.0,34,-99.99,,,-99.99,,2013-01-24 19:42:00,
2013-01-24 13:52:00,43.0,17.0,30.40,North,-999,-999.0,-999.0,34,-99.99,,,-99.99,,2013-01-24 19:52:00,
2013-01-24 14:22:00,44.0,16.0,30.38,North,-999,-999.0,-999.0,32,-99.99,,,-99.99,,2013-01-24 20:22:00,
2013-01-24 14:32:00,44.0,16.0,30.38,North,-999,-999.0,-999.0,32,-99.99,,,-99.99,,2013-01-24 20:32:00,
2013-01-24 14:42:00,44.0,16.0,30.38,North,-999,-999.0,-999.0,32,-99.99,,,-99.99,,2013-01-24 20:42:00,
2013-01-24 14:52:00,44.0,16.0,30.38,North,-999,-999.0,-999.0,32,-99.99,,,-99.99,,2013-01-24 20:52:00,
2013-01-24 15:22:00,45.0,18.0,30.38,North,-999,-999.0,-999.0,33,-99.99,,,-99.99,,2013-01-24 21:22:00,
2013-01-24 15:33:00,45.0,18.0,30.38,North,-999,-999.0,-999.0,33,-99.99,,,-99.99,,2013-01-24 21:33:00,
2013-01-24 15:43:00,45.0,18.0,30.38,North,-999,-999.0,-999.0,33,-99.99,,,-99.99,,2013-01-24 21:43:00,
2013-01-24 15:52:00,45.0,18.0,30.38,North,-999,-999.0,-999.0,33,-99.99,,,-99.99,,2013-01-24 21:52:00,
2013-01-24 16:22:00,44.0,17.0,30.38,North,-999,-999.0,-999.0,33,-99.99,,,-99.99,,2013-01-24 22:22:00,
2013-01-24 16:32:00,44.0,17.0,30.38,North,-999,-999.0,-999.0,33,-99.99,,,-99.99,,2013-01-24 22:32:00,
2013-01-24 16:42:00,44.0,17.0,30.38,North,-999,-999.0,-999.0,33,-99.99,,,-99.99,,2013-01-24 22:42:00,
2013-01-24 16:52:00,44.0,17.0,30.38,North,-999,-999.0,-999.0,33,-99.99,,,-99.99,,2013-01-24 22:52:00,
2013-01-24 17:22:00,40.0,16.0,30.37,North,-999,-999.0,-999.0,38,-99.99,,,-99.99,,2013-01-24 23:22:00,
2013-01-24 17:32:00,40.0,16.0,30.37,North,-999,-999.0,-999.0,38,-99.99,,,-99.99,,2013-01-24 23:32:00,
2013-01-24 17:42:00,40.0,16.0,30.37,North,-999,-999.0,-999.0,38,-99.99,,,-99.99,,2013-01-24 23:42:00,
2013-01-24 17:52:00,40.0,16.0,30.37,North,-999,-999.0,-999.0,38,-99.99,,,-99.99,,2013-01-24 23:52:00,
2013-01-24 18:22:00,38.0,15.0,30.38,North,-999,-999.0,-999.0,39,-99.99,,,-99.99,,2013-01-25 00:22:00,
2013-01-24 18:32:00,38.0,15.0,30.38,North,-999,-999.0,-999.0,39,-99.99,,,-99.99,,2013-01-25 00:32:00,
2013-01-24 18:42:00,38.0,15.0,30.38,North,-999,-999.0,-999.0,39,-99.99,,,-99.99,,2013-01-25 00:42:00,
2013-01-24 18:52:00,38.0,15.0,30.38,North,-999,-999.0,-999.0,39,-99.99,,,-99.99,,2013-01-25 00:52:00,